createdAt,value
2023-04-26T00:01:31.090Z,60.39
2023-04-26T00:03:58.346Z,60.53
2023-04-26T00:06:27.430Z,60.54
2023-04-26T00:08:54.995Z,60.54
2023-04-26T00:11:23.047Z,60.61
2023-04-26T00:13:49.893Z,60.46
2023-04-26T00:16:16.808Z,60.58
2023-04-26T00:18:43.465Z,60.43
2023-04-26T00:21:10.481Z,60.65
2023-04-26T00:23:37.067Z,60.68
2023-04-26T00:26:04.390Z,60.55
2023-04-26T00:28:31.509Z,60.63
2023-04-26T00:30:58.317Z,60.83
2023-04-26T00:33:26.073Z,60.62
2023-04-26T00:35:52.899Z,60.62
2023-04-26T00:38:19.704Z,60.89
2023-04-26T00:40:46.469Z,60.78
2023-04-26T00:43:13.214Z,60.68
2023-04-26T00:45:39.972Z,60.62
2023-04-26T00:48:06.816Z,60.83
2023-04-26T00:50:34.199Z,60.78
2023-04-26T00:53:03.786Z,60.64
2023-04-26T00:55:30.525Z,60.75
2023-04-26T00:57:57.826Z,60.66
2023-04-26T01:00:24.566Z,60.69
2023-04-26T01:02:52.220Z,60.90
2023-04-26T01:05:19.422Z,60.88
2023-04-26T01:07:46.496Z,60.61
2023-04-26T01:10:13.323Z,60.83
2023-04-26T01:12:43.224Z,61.00
2023-04-26T01:15:11.362Z,60.74
2023-04-26T01:17:38.435Z,60.93
2023-04-26T01:20:06.076Z,61.00
2023-04-26T01:22:34.442Z,61.04
2023-04-26T01:25:04.348Z,61.01
2023-04-26T01:27:32.852Z,60.95
2023-04-26T01:29:59.575Z,61.04
2023-04-26T01:32:26.339Z,60.72
2023-04-26T01:34:53.101Z,60.95
2023-04-26T01:37:19.693Z,60.99
2023-04-26T01:39:46.638Z,61.01
2023-04-26T01:42:13.407Z,60.84
2023-04-26T01:44:40.476Z,60.85
2023-04-26T01:47:07.341Z,61.17
2023-04-26T01:49:34.440Z,61.21
2023-04-26T01:52:01.371Z,61.12
2023-04-26T01:54:28.051Z,60.97
2023-04-26T01:56:54.666Z,61.26
2023-04-26T01:59:21.458Z,61.05
2023-04-26T02:01:48.235Z,60.97
2023-04-26T02:04:14.956Z,61.03
2023-04-26T02:06:42.377Z,61.11
2023-04-26T02:09:12.211Z,61.12
2023-04-26T02:11:41.276Z,60.98
2023-04-26T02:14:08.094Z,61.06
2023-04-26T02:16:35.248Z,61.13
2023-04-26T02:19:03.463Z,60.95
2023-04-26T02:21:30.662Z,61.22
2023-04-26T02:23:57.588Z,61.27
2023-04-26T02:26:24.352Z,61.12
2023-04-26T02:28:51.322Z,61.33
2023-04-26T02:31:18.214Z,61.23
2023-04-26T02:33:45.030Z,61.10
2023-04-26T02:36:12.510Z,61.40
2023-04-26T02:38:39.490Z,61.42
2023-04-26T02:41:06.647Z,61.22
2023-04-26T02:43:33.749Z,61.46
2023-04-26T02:46:01.403Z,61.40
2023-04-26T02:48:29.093Z,61.24
2023-04-26T02:50:57.227Z,61.21
2023-04-26T02:53:24.392Z,61.39
2023-04-26T02:55:51.404Z,61.32
2023-04-26T02:58:18.476Z,61.54
2023-04-26T03:00:47.663Z,61.40
2023-04-26T03:03:15.558Z,61.36
2023-04-26T03:05:42.815Z,61.46
2023-04-26T03:08:12.570Z,61.33
2023-04-26T03:10:39.210Z,61.61
2023-04-26T03:13:06.004Z,61.48
2023-04-26T03:15:32.830Z,61.39
2023-04-26T03:17:59.557Z,61.41
2023-04-26T03:20:27.261Z,61.39
2023-04-26T03:22:55.027Z,61.54
2023-04-26T03:25:22.167Z,61.55
2023-04-26T03:27:48.811Z,61.58
2023-04-26T03:30:15.959Z,61.62
2023-04-26T03:32:44.572Z,61.44
2023-04-26T03:35:12.037Z,61.72
2023-04-26T03:37:42.970Z,61.54
2023-04-26T03:40:12.868Z,61.75
2023-04-26T03:42:39.874Z,61.57
2023-04-26T03:45:07.321Z,61.61
2023-04-26T03:47:35.343Z,61.61
2023-04-26T03:50:02.400Z,61.59
2023-04-26T03:52:30.025Z,61.65
2023-04-26T03:54:56.930Z,61.67
2023-04-26T03:57:23.488Z,61.80
2023-04-26T03:59:50.661Z,61.77
2023-04-26T04:02:17.576Z,61.65
2023-04-26T04:04:44.841Z,61.66
2023-04-26T04:07:11.908Z,61.78
2023-04-26T04:09:39.092Z,61.77
2023-04-26T04:12:05.987Z,61.80
2023-04-26T04:14:33.114Z,61.80
2023-04-26T04:16:59.939Z,61.72
2023-04-26T04:19:28.589Z,61.87
2023-04-26T04:21:56.311Z,61.78
2023-04-26T04:24:24.186Z,61.72
2023-04-26T04:26:51.874Z,61.83
2023-04-26T04:29:18.809Z,61.65
2023-04-26T04:31:46.132Z,61.85
2023-04-26T04:34:13.140Z,61.76
2023-04-26T04:36:41.754Z,61.61
2023-04-26T04:39:13.471Z,61.90
2023-04-26T04:41:47.509Z,61.70
2023-04-26T04:44:18.609Z,61.33
2023-04-26T04:46:45.568Z,61.60
2023-04-26T04:49:12.941Z,61.82
2023-04-26T04:51:39.895Z,61.95
2023-04-26T04:54:14.304Z,61.81
2023-04-26T04:56:42.115Z,61.82
2023-04-26T04:59:11.012Z,61.88
2023-04-26T05:01:38.773Z,61.83
2023-04-26T05:04:10.062Z,61.79
2023-04-26T05:06:37.605Z,61.91
2023-04-26T05:09:05.935Z,61.89
2023-04-26T05:11:33.210Z,61.73
2023-04-26T05:14:01.671Z,61.78
2023-04-26T05:16:29.260Z,61.99
2023-04-26T05:18:56.492Z,61.80
2023-04-26T05:21:24.084Z,61.77
2023-04-26T05:23:51.260Z,61.80
2023-04-26T05:26:18.600Z,61.85
2023-04-26T05:28:45.856Z,61.92
2023-04-26T05:31:29.855Z,62.06
2023-04-26T05:34:08.451Z,61.80
2023-04-26T05:36:39.751Z,61.89
2023-04-26T05:39:07.660Z,61.59
2023-04-26T05:41:34.355Z,61.68
2023-04-26T05:44:01.253Z,61.90
2023-04-26T05:46:28.219Z,61.77
2023-04-26T05:48:55.287Z,61.82
2023-04-26T05:51:22.012Z,61.85
2023-04-26T05:53:48.682Z,61.69
2023-04-26T05:56:16.720Z,61.91
2023-04-26T05:58:44.742Z,61.80
2023-04-26T06:01:12.386Z,61.96
2023-04-26T06:03:39.431Z,61.76
2023-04-26T06:06:08.006Z,61.82
2023-04-26T06:08:35.540Z,61.74
2023-04-26T06:11:02.416Z,61.71
2023-04-26T06:13:29.072Z,61.62
2023-04-26T06:15:55.905Z,61.58
2023-04-26T06:18:22.682Z,61.53
2023-04-26T06:20:49.420Z,61.57
2023-04-26T06:23:16.137Z,61.39
2023-04-26T06:25:45.634Z,61.12
2023-04-26T06:28:13.327Z,61.59
2023-04-26T06:30:40.187Z,61.24
2023-04-26T06:33:07.765Z,61.10
2023-04-26T06:35:41.994Z,60.72
2023-04-26T06:38:10.099Z,61.10
2023-04-26T06:40:37.289Z,61.17
2023-04-26T06:43:04.238Z,61.83
2023-04-26T06:45:49.593Z,61.47
2023-04-26T06:48:19.492Z,60.89
2023-04-26T06:50:46.374Z,61.02
2023-04-26T06:53:14.126Z,61.16
2023-04-26T06:55:40.925Z,61.00
2023-04-26T06:58:07.735Z,61.03
2023-04-26T07:00:34.530Z,61.10
2023-04-26T07:03:01.573Z,61.34
2023-04-26T07:05:28.703Z,61.13
2023-04-26T07:07:55.417Z,61.44
2023-04-26T07:10:22.308Z,61.40
2023-04-26T07:12:49.107Z,61.69
2023-04-26T07:15:15.999Z,61.33
2023-04-26T07:17:43.017Z,61.37
2023-04-26T07:20:10.413Z,61.08
2023-04-26T07:22:37.198Z,61.10
2023-04-26T07:25:05.011Z,61.22
2023-04-26T07:27:31.996Z,61.15
2023-04-26T07:29:59.393Z,61.00
2023-04-26T07:32:26.097Z,61.10
2023-04-26T07:34:53.023Z,61.01
2023-04-26T07:37:19.761Z,61.19
2023-04-26T07:39:46.661Z,60.92
2023-04-26T07:42:13.286Z,61.15
2023-04-26T07:44:39.894Z,61.23
2023-04-26T07:47:13.124Z,61.29
2023-04-26T07:49:39.853Z,61.37
2023-04-26T07:52:07.969Z,61.31
2023-04-26T07:54:35.364Z,61.25
2023-04-26T07:57:02.010Z,61.27
2023-04-26T07:59:28.669Z,61.35
2023-04-26T08:01:55.304Z,61.43
2023-04-26T08:04:32.717Z,61.33
2023-04-26T08:07:01.599Z,61.18
2023-04-26T08:09:29.393Z,60.93
2023-04-26T08:11:56.939Z,60.73
2023-04-26T08:14:23.647Z,60.82
2023-04-26T08:16:51.674Z,60.60
2023-04-26T08:19:18.447Z,60.64
2023-04-26T08:21:45.158Z,60.70
2023-04-26T08:24:11.814Z,61.01
2023-04-26T08:26:38.774Z,60.88
2023-04-26T08:29:05.357Z,61.17
2023-04-26T08:31:32.290Z,61.06
2023-04-26T08:33:59.044Z,61.12
2023-04-26T08:36:26.353Z,61.05
2023-04-26T08:38:53.029Z,61.03
2023-04-26T08:41:23.005Z,60.99
2023-04-26T08:43:50.137Z,61.23
2023-04-26T08:46:20.074Z,61.02
2023-04-26T08:48:58.575Z,60.95
2023-04-26T08:51:27.329Z,61.08
2023-04-26T08:53:55.898Z,60.89
2023-04-26T08:56:24.182Z,60.84
2023-04-26T08:58:52.013Z,61.07
2023-04-26T09:01:21.832Z,60.89
2023-04-26T09:03:48.903Z,60.81
2023-04-26T09:06:16.563Z,60.88
2023-04-26T09:08:44.720Z,60.69
2023-04-26T09:11:11.524Z,60.78
2023-04-26T09:13:38.191Z,60.80
2023-04-26T09:16:05.314Z,60.83
2023-04-26T09:18:34.031Z,60.66
2023-04-26T09:21:08.566Z,60.73
2023-04-26T09:23:35.724Z,60.60
2023-04-26T09:26:18.467Z,60.81
2023-04-26T09:28:46.556Z,60.74
2023-04-26T09:31:43.199Z,60.84
2023-04-26T09:34:12.223Z,60.75
2023-04-26T09:36:54.851Z,60.63
2023-04-26T09:39:37.478Z,60.50
2023-04-26T09:42:05.153Z,60.63
2023-04-26T09:44:32.475Z,60.62
2023-04-26T09:47:02.297Z,60.46
2023-04-26T09:49:33.431Z,60.35
2023-04-26T09:52:09.197Z,60.56
2023-04-26T09:54:43.304Z,60.35
2023-04-26T09:57:12.046Z,60.38
2023-04-26T09:59:49.862Z,60.54
2023-04-26T10:02:27.641Z,60.07
2023-04-26T10:04:57.344Z,60.36
2023-04-26T10:07:25.567Z,60.07
2023-04-26T10:09:53.484Z,60.13
2023-04-26T10:12:20.774Z,60.22
2023-04-26T10:14:48.496Z,60.31
2023-04-26T10:17:15.184Z,60.02
2023-04-26T10:19:46.831Z,60.33
2023-04-26T10:22:20.917Z,60.10
2023-04-26T10:24:49.064Z,59.95
2023-04-26T10:27:16.255Z,60.07
2023-04-26T10:29:55.190Z,60.02
2023-04-26T10:32:22.703Z,60.03
2023-04-26T10:35:14.096Z,59.48
2023-04-26T10:37:59.891Z,59.62
2023-04-26T10:40:32.792Z,59.48
2023-04-26T10:43:20.660Z,59.57
2023-04-26T10:45:48.896Z,59.61
2023-04-26T10:48:21.232Z,59.56
2023-04-26T10:51:08.398Z,59.57
2023-04-26T10:53:47.203Z,59.41
2023-04-26T10:56:23.442Z,59.56
2023-04-26T10:59:22.490Z,59.48
2023-04-26T11:01:54.758Z,59.40
2023-04-26T11:04:22.443Z,59.24
2023-04-26T11:06:53.094Z,59.32
2023-04-26T11:09:39.805Z,59.28
2023-04-26T11:12:07.878Z,59.32
2023-04-26T11:14:35.499Z,59.21
2023-04-26T11:17:06.871Z,59.14
2023-04-26T11:19:33.985Z,59.15
2023-04-26T11:22:01.775Z,58.89
2023-04-26T11:24:32.079Z,58.99
2023-04-26T11:26:59.457Z,58.73
2023-04-26T11:29:27.034Z,58.90
2023-04-26T11:31:58.513Z,58.74
2023-04-26T11:34:35.269Z,58.65
2023-04-26T11:37:08.449Z,58.66
2023-04-26T11:39:38.232Z,58.42
2023-04-26T11:42:11.910Z,58.40
2023-04-26T11:44:40.852Z,58.21
2023-04-26T11:47:08.359Z,58.17
2023-04-26T11:49:37.626Z,58.21
2023-04-26T11:52:06.495Z,58.39
2023-04-26T11:54:35.861Z,58.40
2023-04-26T11:57:15.289Z,58.27
2023-04-26T11:59:43.394Z,58.29
2023-04-26T12:02:13.000Z,58.41
2023-04-26T12:04:41.264Z,58.20
2023-04-26T12:07:08.701Z,57.99
2023-04-26T12:09:36.706Z,58.20
2023-04-26T12:12:07.490Z,58.22
2023-04-26T12:14:38.562Z,58.17
2023-04-26T12:17:06.820Z,58.03
2023-04-26T12:19:37.964Z,57.86
2023-04-26T12:22:06.954Z,57.72
2023-04-26T12:24:35.868Z,58.03
2023-04-26T12:27:06.102Z,57.55
2023-04-26T12:29:33.775Z,57.60
2023-04-26T12:32:01.743Z,57.52
2023-04-26T12:34:28.673Z,57.70
2023-04-26T12:36:55.884Z,57.93
2023-04-26T12:39:22.775Z,57.71
2023-04-26T12:41:49.469Z,56.96
2023-04-26T12:44:16.295Z,57.46
2023-04-26T12:46:43.328Z,57.43
2023-04-26T12:49:10.262Z,57.32
2023-04-26T12:51:36.983Z,57.07
2023-04-26T12:54:03.962Z,56.66
2023-04-26T12:56:30.824Z,56.59
2023-04-26T12:58:57.542Z,56.92
2023-04-26T13:01:24.414Z,56.76
2023-04-26T13:03:51.308Z,56.71
2023-04-26T13:06:21.249Z,56.63
2023-04-26T13:08:47.908Z,56.71
2023-04-26T13:11:14.782Z,56.85
2023-04-26T13:13:44.397Z,57.27
2023-04-26T13:16:13.023Z,57.16
2023-04-26T13:18:40.689Z,56.96
2023-04-26T13:21:07.897Z,56.72
2023-04-26T13:23:35.011Z,56.64
2023-04-26T13:26:01.779Z,56.82
2023-04-26T13:28:28.753Z,56.96
2023-04-26T13:30:56.106Z,57.03
2023-04-26T13:33:23.280Z,57.10
2023-04-26T13:35:49.943Z,57.08
2023-04-26T13:38:17.188Z,57.07
2023-04-26T13:40:44.205Z,57.17
2023-04-26T13:43:11.212Z,57.11
2023-04-26T13:45:37.826Z,57.05
2023-04-26T13:48:04.669Z,56.91
2023-04-26T13:50:31.422Z,56.88
2023-04-26T13:52:58.272Z,56.72
2023-04-26T13:55:25.756Z,56.65
2023-04-26T13:57:52.576Z,56.66
2023-04-26T14:00:19.588Z,56.73
2023-04-26T14:02:47.249Z,56.78
2023-04-26T14:05:14.394Z,57.06
2023-04-26T14:07:41.743Z,57.12
2023-04-26T14:10:09.409Z,56.97
2023-04-26T14:12:36.173Z,56.96
2023-04-26T14:15:04.416Z,56.81
2023-04-26T14:17:32.590Z,56.92
2023-04-26T14:19:59.493Z,56.84
2023-04-26T14:22:27.099Z,56.77
2023-04-26T14:24:53.837Z,56.82
2023-04-26T14:27:20.891Z,56.92
2023-04-26T14:29:47.576Z,56.61
2023-04-26T14:32:14.409Z,56.55
2023-04-26T14:34:42.012Z,56.71
2023-04-26T14:37:09.153Z,56.58
2023-04-26T14:39:36.012Z,56.45
2023-04-26T14:42:05.494Z,56.45
2023-04-26T14:44:32.046Z,56.51
2023-04-26T14:46:58.778Z,56.49
2023-04-26T14:49:25.782Z,56.31
2023-04-26T14:51:53.644Z,56.13
2023-04-26T14:54:21.323Z,56.22
2023-04-26T14:56:48.908Z,56.24
2023-04-26T14:59:16.219Z,56.32
2023-04-26T15:01:43.163Z,56.13
2023-04-26T15:04:10.331Z,56.02
2023-04-26T15:06:37.217Z,56.12
2023-04-26T15:09:04.573Z,56.07
2023-04-26T15:11:31.338Z,57.28
2023-04-26T15:13:58.042Z,56.82
2023-04-26T15:16:24.720Z,56.65
2023-04-26T15:18:51.590Z,56.56
2023-04-26T15:21:19.512Z,56.56
2023-04-26T15:23:46.627Z,55.97
2023-04-26T15:26:13.820Z,56.08
2023-04-26T15:28:40.767Z,56.07
2023-04-26T15:31:11.586Z,56.22
2023-04-26T15:33:38.561Z,56.08
2023-04-26T15:36:05.765Z,56.36
2023-04-26T15:38:34.893Z,56.21
2023-04-26T15:41:01.606Z,55.87
2023-04-26T15:43:28.653Z,55.82
2023-04-26T15:45:55.427Z,55.89
2023-04-26T15:48:22.564Z,55.56
2023-04-26T15:50:50.675Z,55.54
2023-04-26T15:53:17.884Z,55.41
2023-04-26T15:55:44.797Z,55.27
2023-04-26T15:58:11.504Z,55.19
2023-04-26T16:00:38.198Z,55.45
2023-04-26T16:03:05.063Z,55.47
2023-04-26T16:05:32.073Z,55.58
2023-04-26T16:07:59.759Z,55.64
2023-04-26T16:10:27.053Z,55.30
2023-04-26T16:12:53.795Z,55.43
2023-04-26T16:15:20.678Z,55.35
2023-04-26T16:17:47.691Z,55.21
2023-04-26T16:20:15.178Z,55.01
2023-04-26T16:22:45.420Z,54.92
2023-04-26T16:25:16.367Z,54.94
2023-04-26T16:27:42.964Z,55.08
2023-04-26T16:30:09.905Z,55.27
2023-04-26T16:32:36.831Z,54.93
2023-04-26T16:35:03.531Z,54.91
2023-04-26T16:37:30.524Z,54.87
2023-04-26T16:39:57.305Z,54.97
2023-04-26T16:42:24.258Z,54.95
2023-04-26T16:44:51.112Z,54.92
2023-04-26T16:47:17.875Z,54.93
2023-04-26T16:49:44.603Z,54.79
2023-04-26T16:52:11.461Z,54.96
2023-04-26T16:54:38.316Z,54.71
2023-04-26T16:57:05.004Z,54.70
2023-04-26T16:59:31.846Z,54.84
2023-04-26T17:01:58.986Z,54.79
2023-04-26T17:04:26.415Z,54.78
2023-04-26T17:06:54.567Z,54.75
2023-04-26T17:09:21.397Z,55.17
2023-04-26T17:11:49.864Z,55.09
2023-04-26T17:14:16.648Z,55.10
2023-04-26T17:16:43.325Z,55.00
2023-04-26T17:19:10.244Z,55.19
2023-04-26T17:21:36.894Z,55.38
2023-04-26T17:24:03.762Z,55.40
2023-04-26T17:26:30.803Z,55.40
2023-04-26T17:28:57.468Z,55.55
2023-04-26T17:31:24.364Z,55.76
2023-04-26T17:33:51.231Z,55.74
2023-04-26T17:36:17.957Z,55.87
2023-04-26T17:38:44.626Z,55.98
2023-04-26T17:41:13.120Z,55.98
2023-04-26T17:43:40.378Z,55.87
2023-04-26T17:46:07.196Z,55.93
2023-04-26T17:48:33.804Z,55.76
2023-04-26T17:51:00.945Z,55.78
2023-04-26T17:53:27.870Z,55.56
2023-04-26T17:55:55.124Z,55.72
2023-04-26T17:58:21.950Z,55.42
2023-04-26T18:00:49.163Z,55.21
2023-04-26T18:03:16.330Z,55.42
2023-04-26T18:05:43.228Z,55.62
2023-04-26T18:08:09.903Z,55.76
2023-04-26T18:10:36.663Z,55.75
2023-04-26T18:13:03.480Z,55.92
2023-04-26T18:15:30.502Z,55.93
2023-04-26T18:17:57.241Z,55.92
2023-04-26T18:20:24.618Z,55.95
2023-04-26T18:22:51.792Z,55.93
2023-04-26T18:25:18.473Z,55.93
2023-04-26T18:27:46.733Z,56.13
2023-04-26T18:30:13.516Z,56.13
2023-04-26T18:32:40.193Z,56.08
2023-04-26T18:35:08.257Z,56.24
2023-04-26T18:37:35.201Z,56.22
2023-04-26T18:40:02.184Z,56.18
2023-04-26T18:42:28.992Z,56.20
2023-04-26T18:44:56.576Z,56.39
2023-04-26T18:47:23.504Z,56.31
2023-04-26T18:49:50.183Z,56.22
2023-04-26T18:52:16.926Z,56.43
2023-04-26T18:54:43.616Z,56.41
2023-04-26T18:57:10.763Z,56.57
2023-04-26T18:59:38.642Z,56.56
2023-04-26T19:02:05.557Z,56.51
2023-04-26T19:04:32.602Z,56.36
2023-04-26T19:07:00.758Z,56.36
2023-04-26T19:09:27.459Z,56.44
2023-04-26T19:11:54.123Z,56.28
2023-04-26T19:14:20.850Z,56.35
2023-04-26T19:16:47.624Z,56.45
2023-04-26T19:19:14.771Z,56.58
2023-04-26T19:21:41.515Z,56.36
2023-04-26T19:24:08.338Z,56.51
2023-04-26T19:26:37.285Z,56.54
2023-04-26T19:29:06.192Z,56.49
2023-04-26T19:31:33.926Z,56.54
2023-04-26T19:34:00.831Z,56.63
2023-04-26T19:36:27.543Z,56.48
2023-04-26T19:38:54.468Z,56.49
2023-04-26T19:41:21.510Z,56.59
2023-04-26T19:43:48.281Z,56.71
2023-04-26T19:46:15.419Z,56.46
2023-04-26T19:48:42.349Z,56.56
2023-04-26T19:51:15.066Z,56.68
2023-04-26T19:53:41.876Z,56.66
2023-04-26T19:56:11.017Z,56.41
2023-04-26T19:58:38.739Z,56.73
2023-04-26T20:01:05.805Z,56.62
2023-04-26T20:03:33.436Z,56.74
2023-04-26T20:06:00.514Z,56.60
2023-04-26T20:08:27.420Z,56.60
2023-04-26T20:10:54.514Z,56.79
2023-04-26T20:13:21.324Z,56.64
2023-04-26T20:15:48.192Z,56.80
2023-04-26T20:18:15.027Z,56.84
2023-04-26T20:20:41.614Z,56.84
2023-04-26T20:23:08.363Z,57.24
2023-04-26T20:25:34.984Z,56.88
2023-04-26T20:28:03.623Z,56.93
2023-04-26T20:30:33.952Z,56.85
2023-04-26T20:33:00.811Z,56.86
2023-04-26T20:35:27.599Z,56.93
2023-04-26T20:37:54.451Z,57.05
2023-04-26T20:40:24.090Z,57.00
2023-04-26T20:42:51.342Z,56.95
2023-04-26T20:45:18.117Z,57.07
2023-04-26T20:47:45.698Z,57.03
2023-04-26T20:50:12.783Z,57.16
2023-04-26T20:52:39.725Z,56.80
2023-04-26T20:55:07.182Z,57.16
2023-04-26T20:57:34.113Z,56.99
2023-04-26T21:00:01.089Z,57.19
2023-04-26T21:02:28.061Z,57.15
2023-04-26T21:04:55.122Z,57.05
2023-04-26T21:07:21.919Z,57.05
2023-04-26T21:09:49.294Z,57.21
2023-04-26T21:12:16.178Z,57.25
2023-04-26T21:14:45.759Z,57.11
2023-04-26T21:17:12.500Z,57.05
2023-04-26T21:19:39.428Z,57.25
2023-04-26T21:22:06.303Z,57.23
2023-04-26T21:24:32.962Z,57.32
2023-04-26T21:26:59.731Z,57.25
2023-04-26T21:29:26.391Z,57.15
2023-04-26T21:31:53.085Z,57.31
2023-04-26T21:34:20.301Z,57.22
2023-04-26T21:36:47.482Z,57.35
2023-04-26T21:39:14.604Z,57.39
2023-04-26T21:41:41.622Z,57.28
2023-04-26T21:44:08.441Z,57.29
2023-04-26T21:46:35.085Z,57.30
2023-04-26T21:49:01.779Z,57.30
2023-04-26T21:51:28.496Z,57.44
2023-04-26T21:53:55.290Z,57.40
2023-04-26T21:56:21.951Z,57.37
2023-04-26T21:58:48.686Z,57.29
2023-04-26T22:01:15.653Z,57.58
2023-04-26T22:03:42.837Z,56.77
2023-04-26T22:06:09.914Z,56.74
2023-04-26T22:08:36.767Z,56.73
2023-04-26T22:11:03.769Z,56.74
2023-04-26T22:13:31.360Z,56.88
2023-04-26T22:15:58.512Z,57.02
2023-04-26T22:18:26.430Z,57.06
2023-04-26T22:20:53.719Z,57.23
2023-04-26T22:23:20.440Z,57.25
2023-04-26T22:25:47.114Z,57.44
2023-04-26T22:28:13.778Z,57.54
2023-04-26T22:30:40.458Z,57.37
2023-04-26T22:33:07.385Z,57.68
2023-04-26T22:35:35.180Z,57.61
2023-04-26T22:38:01.990Z,57.92
2023-04-26T22:40:28.745Z,57.82
2023-04-26T22:42:55.618Z,57.85
2023-04-26T22:45:22.831Z,57.93
2023-04-26T22:47:49.695Z,57.98
2023-04-26T22:50:16.568Z,57.82
2023-04-26T22:52:43.231Z,58.22
2023-04-26T22:55:10.208Z,58.22
2023-04-26T22:57:39.959Z,58.20
2023-04-26T23:00:09.998Z,58.17
2023-04-26T23:02:37.133Z,58.27
2023-04-26T23:05:05.482Z,58.49
2023-04-26T23:07:33.526Z,58.70
2023-04-26T23:10:00.286Z,58.41
2023-04-26T23:12:27.719Z,58.35
2023-04-26T23:14:58.494Z,58.49
2023-04-26T23:17:26.685Z,58.59
2023-04-26T23:19:53.801Z,58.64
2023-04-26T23:22:20.939Z,58.61
2023-04-26T23:24:47.798Z,58.55
2023-04-26T23:27:14.607Z,58.65
2023-04-26T23:29:41.477Z,58.69
2023-04-26T23:32:08.161Z,59.21
2023-04-26T23:34:34.870Z,59.10
2023-04-26T23:37:06.791Z,59.17
2023-04-26T23:39:35.018Z,59.37
2023-04-26T23:42:02.271Z,59.22
2023-04-26T23:44:29.065Z,59.24
2023-04-26T23:46:55.849Z,59.47
2023-04-26T23:49:22.595Z,59.33
2023-04-26T23:51:49.231Z,59.39
2023-04-26T23:54:16.588Z,59.67
2023-04-26T23:56:43.433Z,59.49
2023-04-26T23:59:10.216Z,59.69
